createdAt,value
2023-02-24T00:00:51.236Z,4.27
2023-02-24T00:10:53.624Z,4.15
2023-02-24T00:20:57.264Z,4.54
2023-02-24T00:31:11.214Z,4.46
2023-02-24T00:41:19.435Z,4.43
2023-02-24T00:51:31.673Z,4.19
2023-02-24T01:01:34.913Z,4.30
2023-02-24T01:11:57.247Z,4.10
2023-02-24T01:22:01.295Z,3.49
2023-02-24T01:32:03.664Z,4.46
2023-02-24T01:42:07.895Z,4.25
2023-02-24T01:52:17.886Z,3.82
2023-02-24T02:02:22.721Z,2.90
2023-02-24T02:12:24.862Z,4.03
2023-02-24T02:23:01.006Z,3.91
2023-02-24T02:33:40.216Z,3.00
2023-02-24T02:43:52.793Z,3.86
2023-02-24T02:54:10.381Z,3.99
2023-02-24T03:04:22.819Z,3.60
2023-02-24T03:14:29.344Z,3.52
2023-02-24T03:24:32.140Z,3.56
2023-02-24T03:34:58.881Z,2.30
2023-02-24T03:45:06.349Z,3.53
2023-02-24T03:55:09.302Z,3.47
2023-02-24T04:05:15.348Z,2.97
2023-02-24T04:15:33.766Z,3.32
2023-02-24T04:25:36.859Z,3.40
2023-02-24T04:35:40.758Z,3.40
2023-02-24T04:45:43.133Z,3.55
2023-02-24T04:55:50.507Z,3.38
2023-02-24T05:05:57.107Z,3.32
2023-02-24T05:16:08.359Z,3.29
2023-02-24T05:26:12.854Z,2.65
2023-02-24T05:36:17.353Z,3.35
2023-02-24T05:46:20.324Z,2.79
2023-02-24T05:56:23.210Z,3.49
2023-02-24T06:06:29.183Z,3.48
2023-02-24T06:16:31.612Z,3.43
2023-02-24T06:26:36.769Z,3.06
2023-02-24T06:36:38.907Z,3.20
2023-02-24T06:46:41.307Z,3.16
2023-02-24T06:56:43.797Z,2.98
2023-02-24T07:06:52.582Z,3.00
2023-02-24T07:16:55.302Z,3.22
2023-02-24T07:27:02.745Z,3.32
2023-02-24T07:37:08.488Z,3.05
2023-02-24T07:47:10.757Z,2.90
2023-02-24T07:57:14.214Z,3.39
2023-02-24T08:07:18.099Z,2.72
2023-02-24T08:17:22.222Z,2.59
2023-02-24T08:27:25.775Z,2.76
2023-02-24T08:37:28.756Z,3.03
2023-02-24T08:47:36.274Z,2.85
2023-02-24T08:57:38.394Z,2.59
2023-02-24T09:07:42.440Z,2.55
2023-02-24T09:17:45.163Z,2.75
2023-02-24T09:27:56.266Z,2.68
2023-02-24T09:38:00.350Z,2.66
2023-02-24T09:48:10.636Z,2.50
2023-02-24T09:58:48.053Z,3.25
2023-02-24T10:09:14.030Z,3.15
2023-02-24T10:19:29.388Z,2.51
2023-02-24T10:29:43.297Z,2.41
2023-02-24T10:39:51.932Z,1.99
2023-02-24T10:49:57.758Z,1.77
2023-02-24T11:00:19.750Z,2.11
2023-02-24T11:10:32.265Z,1.96
2023-02-24T11:20:49.319Z,1.94
2023-02-24T11:31:16.930Z,1.96
2023-02-24T11:41:23.984Z,2.32
2023-02-24T11:51:31.553Z,2.42
2023-02-24T12:01:42.559Z,1.92
2023-02-24T12:12:06.197Z,1.62
2023-02-24T12:22:15.840Z,1.71
2023-02-24T12:32:23.987Z,2.04
2023-02-24T12:43:03.731Z,1.71
2023-02-24T12:53:08.915Z,1.38
2023-02-24T13:03:39.630Z,1.18
2023-02-24T13:13:50.421Z,1.53
2023-02-24T13:24:03.649Z,2.21
2023-02-24T13:34:15.448Z,0.91
2023-02-24T13:44:28.452Z,1.45
2023-02-24T13:55:07.687Z,1.45
2023-02-24T14:05:18.864Z,1.95
2023-02-24T14:15:26.084Z,1.67
2023-02-24T14:25:31.034Z,1.31
2023-02-24T14:35:36.289Z,1.85
2023-02-24T14:45:48.259Z,1.94
2023-02-24T14:55:54.814Z,2.45
2023-02-24T15:06:00.550Z,2.20
2023-02-24T15:16:22.067Z,3.04
2023-02-24T15:26:33.789Z,2.95
2023-02-24T15:36:37.144Z,2.55
2023-02-24T15:46:40.879Z,2.82
2023-02-24T15:56:44.813Z,2.92
2023-02-24T16:06:54.546Z,2.81
2023-02-24T16:16:56.891Z,2.72
2023-02-24T16:26:59.190Z,2.70
2023-02-24T16:37:01.611Z,2.84
2023-02-24T16:47:04.610Z,3.66
2023-02-24T16:57:08.794Z,3.57
2023-02-24T17:07:16.311Z,3.16
2023-02-24T17:17:18.646Z,3.46
2023-02-24T17:27:22.077Z,4.09
2023-02-24T17:37:24.209Z,3.95
2023-02-24T17:47:27.322Z,2.78
2023-02-24T17:57:34.461Z,2.22
2023-02-24T18:07:37.861Z,2.85
2023-02-24T18:17:40.114Z,2.65
2023-02-24T18:27:43.482Z,3.48
2023-02-24T18:37:46.608Z,3.39
2023-02-24T18:47:50.991Z,3.23
2023-02-24T18:57:53.049Z,2.85
2023-02-24T19:07:55.232Z,2.96
2023-02-24T19:17:57.300Z,2.57
2023-02-24T19:28:00.251Z,2.98
2023-02-24T19:38:02.619Z,2.51
2023-02-24T19:48:04.732Z,2.92
2023-02-24T19:58:06.938Z,2.49
2023-02-24T20:08:09.328Z,2.74
2023-02-24T20:18:11.811Z,2.84
2023-02-24T20:28:14.123Z,2.05
2023-02-24T20:38:17.620Z,2.62
2023-02-24T20:48:20.072Z,3.08
2023-02-24T20:58:25.763Z,2.57
2023-02-24T21:08:30.468Z,2.53
2023-02-24T21:18:32.637Z,2.70
2023-02-24T21:28:36.373Z,3.07
2023-02-24T21:38:38.735Z,1.93
2023-02-24T21:48:42.074Z,2.09
2023-02-24T21:58:53.722Z,1.95
2023-02-24T22:08:56.348Z,2.09
2023-02-24T22:18:58.767Z,1.49
2023-02-24T22:29:02.251Z,2.13
2023-02-24T22:39:06.798Z,2.65
2023-02-24T22:49:10.278Z,2.06
2023-02-24T22:59:12.695Z,1.53
2023-02-24T23:09:19.670Z,2.29
2023-02-24T23:19:22.318Z,2.39
2023-02-24T23:29:26.422Z,2.43
2023-02-24T23:39:28.917Z,1.83
2023-02-24T23:49:46.158Z,1.74
2023-02-24T23:59:49.753Z,2.24
